Terminal Aerodrome Forecast
Issued by NWS

Home | Current Version | Previous Version | Text Only | Print | Product List | Glossary Off
Versions: 1 2 3 4 5 6 7 8 9 10 11 12 13 14 15 16 17 18

131
FTUS43 KMPX 211136
TAFRWF
TAF
KRWF 211136Z 2112/2212 10007KT P6SM SCT025 BKN040 OVC080
     FM211500 15005KT P6SM BKN250
     FM220000 VRB03KT P6SM SCT250=

USA.gov is the U.S. government's official web portal to all federal, state and local government web resources and services.